createdAt,value
2023-04-15T00:00:29.534Z,51.04
2023-04-15T00:05:23.393Z,51.17
2023-04-15T00:10:16.225Z,51.13
2023-04-15T00:15:13.382Z,50.94
2023-04-15T00:20:07.419Z,50.80
2023-04-15T00:25:01.888Z,50.73
2023-04-15T00:29:55.207Z,50.42
2023-04-15T00:34:47.859Z,50.69
2023-04-15T00:39:40.886Z,50.47
2023-04-15T00:44:33.977Z,50.41
2023-04-15T00:49:27.554Z,50.40
2023-04-15T00:54:20.491Z,50.67
2023-04-15T00:59:13.237Z,51.01
2023-04-15T01:04:06.941Z,50.81
2023-04-15T01:09:00.762Z,51.13
2023-04-15T01:13:54.556Z,51.11
2023-04-15T01:18:47.744Z,50.64
2023-04-15T01:23:41.969Z,50.62
2023-04-15T01:28:36.271Z,50.19
2023-04-15T01:33:30.007Z,50.19
2023-04-15T01:38:23.994Z,50.53
2023-04-15T01:43:17.090Z,50.44
2023-04-15T01:48:10.338Z,50.60
2023-04-15T01:53:03.978Z,50.34
2023-04-15T01:57:56.300Z,50.48
2023-04-15T02:02:49.972Z,50.43
2023-04-15T02:07:47.557Z,50.66
2023-04-15T02:12:40.495Z,50.69
2023-04-15T02:17:38.334Z,50.61
2023-04-15T02:22:31.143Z,50.61
2023-04-15T02:27:24.592Z,50.02
2023-04-15T02:32:18.143Z,50.28
2023-04-15T02:37:14.162Z,50.31
2023-04-15T02:42:07.111Z,50.36
2023-04-15T02:46:59.774Z,49.98
2023-04-15T02:51:52.225Z,49.48
2023-04-15T02:56:46.216Z,49.71
2023-04-15T03:01:39.702Z,49.95
2023-04-15T03:06:33.582Z,49.85
2023-04-15T03:11:28.374Z,49.99
2023-04-15T03:16:21.958Z,49.79
2023-04-15T03:21:15.456Z,49.66
2023-04-15T03:26:09.237Z,49.75
2023-04-15T03:31:02.819Z,49.66
2023-04-15T03:35:56.600Z,49.39
2023-04-15T03:40:49.633Z,48.43
2023-04-15T03:45:42.762Z,47.56
2023-04-15T03:50:35.970Z,47.45
2023-04-15T03:55:29.999Z,47.23
2023-04-15T04:00:23.885Z,46.84
2023-04-15T04:05:17.623Z,46.61
2023-04-15T04:10:11.777Z,46.50
2023-04-15T04:15:07.413Z,46.24
2023-04-15T04:20:00.638Z,45.87
2023-04-15T04:24:54.244Z,45.71
2023-04-15T04:29:48.386Z,45.40
2023-04-15T04:34:41.644Z,45.28
2023-04-15T04:39:35.012Z,44.97
2023-04-15T04:44:28.352Z,44.93
2023-04-15T04:49:21.777Z,44.91
2023-04-15T04:54:15.334Z,44.35
2023-04-15T04:59:08.488Z,44.39
2023-04-15T05:04:03.671Z,44.48
2023-04-15T05:08:57.529Z,44.57
2023-04-15T05:13:54.520Z,44.47
2023-04-15T05:18:48.299Z,44.40
2023-04-15T05:23:41.683Z,44.35
2023-04-15T05:28:35.139Z,44.37
2023-04-15T05:33:28.310Z,44.40
2023-04-15T05:38:21.746Z,44.49
2023-04-15T05:43:15.572Z,45.06
2023-04-15T05:48:09.347Z,45.00
2023-04-15T05:53:04.804Z,44.53
2023-04-15T05:57:57.974Z,44.68
2023-04-15T06:02:52.357Z,45.04
2023-04-15T06:07:46.127Z,44.43
2023-04-15T06:12:41.048Z,44.08
2023-04-15T06:17:35.361Z,43.92
2023-04-15T06:22:28.133Z,43.95
2023-04-15T06:27:21.407Z,43.99
2023-04-15T06:32:14.468Z,43.82
2023-04-15T06:37:07.301Z,44.13
2023-04-15T06:42:00.800Z,43.76
2023-04-15T06:46:54.340Z,44.45
2023-04-15T06:51:47.878Z,44.33
2023-04-15T06:56:42.871Z,44.35
2023-04-15T07:01:36.447Z,44.61
2023-04-15T07:06:29.803Z,45.05
2023-04-15T07:11:22.416Z,44.65
2023-04-15T07:16:15.715Z,44.66
2023-04-15T07:21:08.561Z,44.62
2023-04-15T07:26:02.004Z,44.21
2023-04-15T07:30:56.151Z,43.58
2023-04-15T07:35:49.483Z,43.56
2023-04-15T07:40:42.487Z,43.43
2023-04-15T07:45:36.270Z,43.81
2023-04-15T07:50:29.117Z,43.78
2023-04-15T07:55:28.148Z,44.06
2023-04-15T08:00:21.732Z,44.01
2023-04-15T08:05:16.027Z,44.06
2023-04-15T08:10:10.834Z,44.23
2023-04-15T08:15:04.682Z,44.51
2023-04-15T08:19:57.870Z,43.04
2023-04-15T08:24:55.178Z,43.18
2023-04-15T08:29:48.134Z,43.13
2023-04-15T08:34:42.259Z,43.13
2023-04-15T08:39:35.050Z,41.85
2023-04-15T08:44:32.194Z,43.08
2023-04-15T08:49:28.848Z,44.29
2023-04-15T08:54:21.562Z,44.85
2023-04-15T08:59:14.061Z,44.84
2023-04-15T09:04:09.138Z,44.78
2023-04-15T09:09:03.391Z,44.65
2023-04-15T09:13:57.692Z,44.64
2023-04-15T09:18:51.187Z,44.81
2023-04-15T09:24:04.725Z,47.66
2023-04-15T09:29:10.584Z,43.54
2023-04-15T09:34:03.918Z,38.70
2023-04-15T09:39:01.395Z,37.97
2023-04-15T09:43:55.144Z,36.71
2023-04-15T09:48:48.960Z,36.57
2023-04-15T09:53:41.843Z,36.55
2023-04-15T09:58:36.293Z,35.54
2023-04-15T10:03:35.895Z,36.85
2023-04-15T10:08:31.184Z,37.37
2023-04-15T10:13:30.252Z,37.50
2023-04-15T10:18:26.586Z,36.82
2023-04-15T10:23:19.762Z,35.83
2023-04-15T10:28:13.093Z,36.80
2023-04-15T10:33:07.175Z,37.53
2023-04-15T10:38:00.497Z,38.55
2023-04-15T10:42:55.109Z,39.24
2023-04-15T10:47:47.576Z,38.70
2023-04-15T10:52:43.775Z,38.74
2023-04-15T10:57:40.748Z,39.62
2023-04-15T11:02:48.970Z,40.90
2023-04-15T11:07:50.263Z,41.92
2023-04-15T11:12:44.709Z,42.51
2023-04-15T11:17:37.512Z,42.89
2023-04-15T11:22:31.025Z,43.81
2023-04-15T11:27:24.023Z,44.07
2023-04-15T11:32:17.314Z,44.29
2023-04-15T11:37:10.922Z,44.62
2023-04-15T11:42:04.518Z,44.48
2023-04-15T11:46:57.922Z,44.92
2023-04-15T11:51:51.355Z,45.20
2023-04-15T11:56:51.341Z,45.36
2023-04-15T12:01:44.402Z,45.35
2023-04-15T12:06:38.951Z,45.20
2023-04-15T12:11:53.912Z,44.97
2023-04-15T12:16:51.760Z,44.96
2023-04-15T12:21:50.065Z,44.77
2023-04-15T12:26:52.057Z,44.92
2023-04-15T12:31:53.363Z,45.39
2023-04-15T12:36:51.527Z,45.50
2023-04-15T12:41:43.843Z,45.69
2023-04-15T12:46:36.443Z,45.77
2023-04-15T12:51:29.553Z,45.74
2023-04-15T12:56:22.116Z,46.10
2023-04-15T13:01:15.351Z,45.70
2023-04-15T13:06:09.265Z,46.00
2023-04-15T13:11:01.321Z,46.19
2023-04-15T13:15:54.568Z,45.61
2023-04-15T13:20:48.633Z,45.47
2023-04-15T13:25:42.605Z,45.61
2023-04-15T13:30:34.453Z,45.56
2023-04-15T13:35:28.057Z,45.40
2023-04-15T13:40:20.891Z,45.71
2023-04-15T13:45:13.969Z,46.23
2023-04-15T13:50:08.322Z,46.46
2023-04-15T13:55:06.944Z,46.64
2023-04-15T14:00:13.118Z,46.71
2023-04-15T14:05:07.016Z,47.07
2023-04-15T14:10:00.849Z,47.21
2023-04-15T14:14:54.735Z,47.78
2023-04-15T14:19:47.052Z,47.94
2023-04-15T14:24:40.809Z,48.50
2023-04-15T14:29:34.259Z,48.68
2023-04-15T14:34:26.966Z,49.39
2023-04-15T14:39:21.338Z,49.40
2023-04-15T14:44:14.340Z,49.50
2023-04-15T14:49:07.973Z,49.86
2023-04-15T14:54:01.180Z,50.41
2023-04-15T14:58:54.812Z,50.44
2023-04-15T15:03:46.828Z,50.71
2023-04-15T15:08:39.894Z,50.68
2023-04-15T15:13:32.781Z,50.63
2023-04-15T15:18:26.288Z,50.43
2023-04-15T15:23:19.975Z,50.44
2023-04-15T15:28:12.159Z,50.55
2023-04-15T15:33:05.589Z,50.24
2023-04-15T15:37:59.092Z,50.24
2023-04-15T15:42:51.728Z,49.96
2023-04-15T15:47:44.757Z,49.18
2023-04-15T15:52:37.204Z,49.20
2023-04-15T15:57:31.294Z,49.05
2023-04-15T16:02:45.845Z,48.74
2023-04-15T16:07:39.845Z,48.84
2023-04-15T16:12:34.821Z,48.55
2023-04-15T16:17:28.094Z,48.64
2023-04-15T16:22:20.285Z,46.74
2023-04-15T16:27:16.238Z,47.67
2023-04-15T16:32:09.486Z,47.51
2023-04-15T16:37:04.285Z,46.44
2023-04-15T16:41:58.497Z,47.06
2023-04-15T16:46:51.535Z,46.46
2023-04-15T16:51:44.931Z,45.83
2023-04-15T16:56:37.152Z,46.63
2023-04-15T17:01:31.128Z,47.55
2023-04-15T17:06:23.717Z,47.95
2023-04-15T17:11:17.450Z,48.68
2023-04-15T17:16:09.723Z,49.26
2023-04-15T17:21:03.873Z,48.97
2023-04-15T17:25:58.253Z,49.63
2023-04-15T17:30:51.537Z,50.13
2023-04-15T17:35:45.521Z,50.25
2023-04-15T17:40:38.003Z,50.33
2023-04-15T17:45:31.752Z,50.49
2023-04-15T17:50:24.416Z,50.20
2023-04-15T17:55:17.781Z,49.88
2023-04-15T18:00:12.402Z,50.05
2023-04-15T18:05:06.801Z,50.11
2023-04-15T18:09:59.575Z,50.19
2023-04-15T18:14:52.148Z,49.78
2023-04-15T18:19:46.487Z,48.80
2023-04-15T18:24:40.874Z,48.80
2023-04-15T18:29:39.881Z,48.26
2023-04-15T18:34:33.255Z,47.20
2023-04-15T18:39:27.411Z,47.88
2023-04-15T18:44:20.930Z,47.72
2023-04-15T18:49:14.489Z,47.77
2023-04-15T18:54:07.463Z,48.34
2023-04-15T18:59:27.550Z,48.75
2023-04-15T19:04:12.910Z,49.90
2023-04-15T19:09:07.200Z,50.21
2023-04-15T19:14:00.879Z,50.25
2023-04-15T19:18:53.700Z,50.40
2023-04-15T19:23:45.888Z,50.22
2023-04-15T19:28:38.839Z,50.44
2023-04-15T19:33:32.933Z,50.41
2023-04-15T19:38:27.428Z,50.80
2023-04-15T19:43:21.376Z,50.47
2023-04-15T19:48:14.463Z,50.65
2023-04-15T19:53:07.607Z,50.25
2023-04-15T19:58:01.843Z,50.12
2023-04-15T20:02:58.319Z,50.49
2023-04-15T20:07:55.437Z,51.37
2023-04-15T20:12:52.675Z,51.66
2023-04-15T20:17:47.440Z,51.83
2023-04-15T20:22:40.672Z,52.22
2023-04-15T20:27:34.043Z,52.55
2023-04-15T20:32:28.623Z,52.54
2023-04-15T20:37:23.213Z,52.59
2023-04-15T20:42:16.194Z,53.03
2023-04-15T20:47:09.768Z,53.42
2023-04-15T20:52:03.106Z,53.29
2023-04-15T20:56:58.053Z,53.62
2023-04-15T21:01:51.170Z,52.94
2023-04-15T21:06:44.942Z,53.87
2023-04-15T21:11:57.427Z,53.49
2023-04-15T21:16:51.684Z,54.35
2023-04-15T21:21:46.611Z,54.35
2023-04-15T21:26:40.209Z,55.15
2023-04-15T21:31:34.742Z,55.09
2023-04-15T21:36:29.221Z,54.65
2023-04-15T21:41:23.274Z,55.22
2023-04-15T21:46:24.048Z,55.40
2023-04-15T21:51:17.652Z,55.74
2023-04-15T21:56:11.487Z,55.46
2023-04-15T22:01:06.665Z,55.89
2023-04-15T22:06:01.255Z,56.12
2023-04-15T22:10:54.817Z,55.92
2023-04-15T22:15:48.928Z,56.71
2023-04-15T22:20:42.145Z,56.34
2023-04-15T22:25:39.504Z,56.24
2023-04-15T22:30:33.376Z,56.54
2023-04-15T22:35:26.948Z,56.56
2023-04-15T22:40:21.301Z,56.51
2023-04-15T22:45:14.796Z,55.88
2023-04-15T22:50:08.033Z,56.21
2023-04-15T22:55:00.747Z,56.15
2023-04-15T22:59:54.788Z,56.32
2023-04-15T23:04:47.802Z,56.09
2023-04-15T23:09:41.814Z,55.88
2023-04-15T23:14:34.465Z,56.23
2023-04-15T23:19:28.071Z,56.11
2023-04-15T23:24:23.031Z,56.15
2023-04-15T23:29:15.864Z,56.14
2023-04-15T23:34:09.865Z,55.97
2023-04-15T23:39:02.449Z,55.56
2023-04-15T23:43:55.027Z,55.80
2023-04-15T23:48:49.735Z,55.97
2023-04-15T23:53:42.463Z,55.79
2023-04-15T23:58:36.600Z,55.98
